TimeCST,TemperatureF,Dew PointF,Humidity,Sea Level PressureIn,VisibilityMPH,Wind Direction,Wind SpeedMPH,Gust SpeedMPH,PrecipitationIn,Events,Conditions,WindDirDegrees,DateUTC
12:53 AM,18.0,14.0,84,30.14,10.0,North,8.1,-,N/A,,Clear,10,2012-11-30 06:53:00
1:53 AM,18.0,14.0,84,30.14,10.0,North,6.9,-,N/A,,Clear,10,2012-11-30 07:53:00
2:53 AM,17.1,12.9,84,30.14,10.0,NE,5.8,-,N/A,,Clear,40,2012-11-30 08:53:00
3:53 AM,15.1,12.0,88,30.14,10.0,NNE,5.8,-,N/A,,Clear,20,2012-11-30 09:53:00
4:53 AM,14.0,10.9,88,30.17,10.0,North,3.5,-,N/A,,Clear,350,2012-11-30 10:53:00
5:53 AM,12.9,9.0,84,30.14,10.0,East,4.6,-,N/A,,Clear,80,2012-11-30 11:53:00
6:46 AM,14.0,10.4,86,30.07,9.0,ESE,6.9,-,N/A,,Scattered Clouds,110,2012-11-30 12:46:00
6:53 AM,19.0,15.1,85,30.14,7.0,SE,4.6,-,N/A,,Mostly Cloudy,130,2012-11-30 12:53:00
7:21 AM,21.2,19.4,93,30.07,1.8,SE,6.9,-,N/A,,Overcast,130,2012-11-30 13:21:00
7:32 AM,23.0,21.2,93,30.08,1.0,SE,6.9,-,N/A,,Mist,140,2012-11-30 13:32:00
7:53 AM,24.1,21.9,91,30.14,1.8,ESE,6.9,-,N/A,,Overcast,120,2012-11-30 13:53:00
8:00 AM,24.8,23.0,93,30.08,2.5,SE,5.8,-,N/A,,Overcast,130,2012-11-30 14:00:00
8:17 AM,24.8,23.0,93,30.09,1.5,SE,10.4,-,N/A,,Overcast,140,2012-11-30 14:17:00
8:53 AM,26.1,24.1,92,30.15,1.8,SSE,8.1,-,N/A,,Overcast,160,2012-11-30 14:53:00
9:53 AM,26.1,24.1,92,30.16,1.5,SSE,9.2,-,N/A,,Overcast,160,2012-11-30 15:53:00
10:53 AM,27.0,25.0,92,30.14,1.5,South,8.1,-,N/A,,Overcast,170,2012-11-30 16:53:00
11:18 AM,28.4,24.8,86,30.06,2.0,SSE,10.4,-,N/A,,Overcast,160,2012-11-30 17:18:00
11:53 AM,28.0,26.1,92,30.11,2.5,South,10.4,-,N/A,,Overcast,170,2012-11-30 17:53:00
12:49 PM,28.4,26.6,93,30.02,3.0,South,12.7,-,N/A,,Overcast,190,2012-11-30 18:49:00
12:53 PM,28.9,26.1,89,30.07,3.0,South,10.4,-,N/A,,Overcast,170,2012-11-30 18:53:00
1:53 PM,30.9,26.1,82,30.06,4.0,South,9.2,-,N/A,,Haze,170,2012-11-30 19:53:00
2:00 PM,30.2,26.6,86,30.00,5.0,SSE,10.4,-,N/A,,Haze,160,2012-11-30 20:00:00
2:53 PM,32.0,27.0,82,30.01,6.0,South,9.2,-,N/A,,Haze,170,2012-11-30 20:53:00
3:01 PM,32.0,26.6,80,29.95,6.0,SE,8.1,-,N/A,,Haze,140,2012-11-30 21:01:00
3:53 PM,34.0,27.0,75,29.98,6.0,SSE,6.9,-,N/A,,Haze,160,2012-11-30 21:53:00
4:53 PM,27.0,23.0,85,29.96,5.0,SSE,6.9,-,N/A,,Clear,160,2012-11-30 22:53:00
5:53 PM,30.0,25.0,82,29.92,7.0,SSE,9.2,-,N/A,,Clear,150,2012-11-30 23:53:00
6:53 PM,34.0,28.0,79,29.89,7.0,SSE,12.7,-,N/A,,Clear,160,2012-12-01 00:53:00
7:53 PM,36.0,28.9,76,29.87,6.0,South,12.7,21.9,N/A,,Haze,170,2012-12-01 01:53:00
8:53 PM,37.0,28.9,73,29.83,7.0,South,20.7,32.2,N/A,,Clear,170,2012-12-01 02:53:00
9:53 PM,37.0,28.9,73,29.83,7.0,South,20.7,29.9,N/A,,Clear,170,2012-12-01 03:53:00
10:53 PM,37.9,30.0,73,29.81,7.0,South,17.3,29.9,N/A,,Clear,170,2012-12-01 04:53:00
11:53 PM,37.9,30.0,73,29.78,7.0,South,19.6,29.9,N/A,,Clear,170,2012-12-01 05:53:00